Adams, North Dakota
Current Conditions -  °F | °C
As of 2:15 PM on Thursday 18 Dec 2014 (Local Time) from KD55 Reporting Station
Overcast Overcast  
Wind Chill: -13°   Ceiling: 5000
Heat Index: -6°   Visibility: 10mi
Dew Point: -9°   Wind: 14mph
Humidity: 80%   Direction: 190°S
Pressure: 30.07"   Gusts: NA
Location:  48.42°N, 98.08°W
Report Text: KD55 182015Z AUTO 19012KT 10SM OVC050 M06/M09 A3007 RMK AO2
Loading
Personal Weather Stations






























Interactive Weather Map New forecast layout! Learn more

10-Day Weather Forecast

Advertisements
Track Severe Weather on mobile